sensor_id;sensor_type;location;lat;lon;timestamp;temperature;humidity
22360;DHT22;71759;52.034;4.706;2023-08-06T09:59:42;16.00;99.90
22360;DHT22;71759;52.034;4.706;2023-08-06T10:02:13;16.00;99.90
22360;DHT22;71759;52.034;4.706;2023-08-06T10:04:39;16.20;99.90
22360;DHT22;71759;52.034;4.706;2023-08-06T10:07:05;16.50;99.90
22360;DHT22;71759;52.034;4.706;2023-08-06T10:09:30;16.70;99.90
22360;DHT22;71759;52.034;4.706;2023-08-06T10:11:56;16.80;99.90
22360;DHT22;71759;52.034;4.706;2023-08-06T10:14:26;17.00;99.90
22360;DHT22;71759;52.034;4.706;2023-08-06T10:16:54;17.30;99.90
22360;DHT22;71759;52.034;4.706;2023-08-06T10:19:22;17.50;99.90
22360;DHT22;71759;52.034;4.706;2023-08-06T10:22:07;17.70;99.90
22360;DHT22;71759;52.034;4.706;2023-08-06T10:24:49;17.90;99.90
22360;DHT22;71759;52.034;4.706;2023-08-06T10:27:33;18.00;98.90
22360;DHT22;71759;52.034;4.706;2023-08-06T10:32:51;18.00;98.30
22360;DHT22;71759;52.034;4.706;2023-08-06T10:35:31;18.00;98.90
22360;DHT22;71759;52.034;4.706;2023-08-06T10:38:08;18.00;98.00
22360;DHT22;71759;52.034;4.706;2023-08-06T10:40:36;18.10;96.50
22360;DHT22;71759;52.034;4.706;2023-08-06T10:43:03;18.20;97.60
22360;DHT22;71759;52.034;4.706;2023-08-06T10:45:29;18.50;94.60
22360;DHT22;71759;52.034;4.706;2023-08-06T10:47:56;18.70;94.40
22360;DHT22;71759;52.034;4.706;2023-08-06T10:50:22;18.90;93.90
22360;DHT22;71759;52.034;4.706;2023-08-06T10:52:48;19.10;91.90
22360;DHT22;71759;52.034;4.706;2023-08-06T10:55:21;19.30;89.90
22360;DHT22;71759;52.034;4.706;2023-08-06T10:57:47;19.30;90.40
22360;DHT22;71759;52.034;4.706;2023-08-06T11:00:13;19.40;88.50
22360;DHT22;71759;52.034;4.706;2023-08-06T11:02:39;19.60;88.60
22360;DHT22;71759;52.034;4.706;2023-08-06T11:05:09;19.80;84.70
22360;DHT22;71759;52.034;4.706;2023-08-06T11:07:35;19.90;76.00
22360;DHT22;71759;52.034;4.706;2023-08-06T11:10:06;19.90;71.60
22360;DHT22;71759;52.034;4.706;2023-08-06T11:12:32;19.90;74.30
22360;DHT22;71759;52.034;4.706;2023-08-06T11:14:59;20.10;73.30
22360;DHT22;71759;52.034;4.706;2023-08-06T11:17:26;20.30;72.90
22360;DHT22;71759;52.034;4.706;2023-08-06T11:19:52;20.50;70.10
22360;DHT22;71759;52.034;4.706;2023-08-06T11:22:20;20.70;72.50
22360;DHT22;71759;52.034;4.706;2023-08-06T11:24:46;21.10;71.20
22360;DHT22;71759;52.034;4.706;2023-08-06T11:27:15;21.20;71.80
22360;DHT22;71759;52.034;4.706;2023-08-06T11:29:41;21.20;66.50
22360;DHT22;71759;52.034;4.706;2023-08-06T11:32:08;21.00;68.20
22360;DHT22;71759;52.034;4.706;2023-08-06T11:34:34;21.00;66.30
22360;DHT22;71759;52.034;4.706;2023-08-06T11:37:00;21.20;67.10
22360;DHT22;71759;52.034;4.706;2023-08-06T11:39:25;21.30;63.90
22360;DHT22;71759;52.034;4.706;2023-08-06T11:41:51;21.50;62.60
22360;DHT22;71759;52.034;4.706;2023-08-06T11:44:19;21.80;62.50
22360;DHT22;71759;52.034;4.706;2023-08-06T11:46:55;22.20;60.30
22360;DHT22;71759;52.034;4.706;2023-08-06T11:52:18;23.10;55.30
22360;DHT22;71759;52.034;4.706;2023-08-06T11:57:33;23.90;50.60
22360;DHT22;71759;52.034;4.706;2023-08-06T12:00:11;24.00;48.60
22360;DHT22;71759;52.034;4.706;2023-08-06T12:02:40;24.00;46.60
22360;DHT22;71759;52.034;4.706;2023-08-06T12:07:48;24.10;48.60
22360;DHT22;71759;52.034;4.706;2023-08-06T12:10:15;24.10;48.50
22360;DHT22;71759;52.034;4.706;2023-08-06T12:12:41;24.10;48.30
22360;DHT22;71759;52.034;4.706;2023-08-06T12:15:08;23.80;48.10
22360;DHT22;71759;52.034;4.706;2023-08-06T12:17:34;23.40;49.50
22360;DHT22;71759;52.034;4.706;2023-08-06T12:20:00;23.10;49.70
22360;DHT22;71759;52.034;4.706;2023-08-06T12:22:26;22.70;49.00
22360;DHT22;71759;52.034;4.706;2023-08-06T12:24:52;22.40;50.70
22360;DHT22;71759;52.034;4.706;2023-08-06T12:27:18;22.10;51.20
22360;DHT22;71759;52.034;4.706;2023-08-06T12:29:52;21.90;54.20
22360;DHT22;71759;52.034;4.706;2023-08-06T12:32:18;21.90;58.40
22360;DHT22;71759;52.034;4.706;2023-08-06T12:34:44;21.80;59.20
22360;DHT22;71759;52.034;4.706;2023-08-06T12:37:10;21.40;58.60
22360;DHT22;71759;52.034;4.706;2023-08-06T12:39:35;21.10;62.10
22360;DHT22;71759;52.034;4.706;2023-08-06T12:42:02;20.70;64.60
22360;DHT22;71759;52.034;4.706;2023-08-06T12:44:28;20.50;66.30
22360;DHT22;71759;52.034;4.706;2023-08-06T12:46:54;20.30;63.60
22360;DHT22;71759;52.034;4.706;2023-08-06T12:49:20;20.30;65.70
22360;DHT22;71759;52.034;4.706;2023-08-06T12:51:47;20.40;66.00
22360;DHT22;71759;52.034;4.706;2023-08-06T12:54:13;20.70;66.00
22360;DHT22;71759;52.034;4.706;2023-08-06T12:56:38;20.80;65.20
22360;DHT22;71759;52.034;4.706;2023-08-06T12:59:04;20.90;62.80
22360;DHT22;71759;52.034;4.706;2023-08-06T13:01:29;20.90;63.70
22360;DHT22;71759;52.034;4.706;2023-08-06T13:03:55;21.20;63.20
22360;DHT22;71759;52.034;4.706;2023-08-06T13:06:20;22.00;61.80
22360;DHT22;71759;52.034;4.706;2023-08-06T13:08:46;22.90;58.00
22360;DHT22;71759;52.034;4.706;2023-08-06T13:11:11;23.80;51.90
22360;DHT22;71759;52.034;4.706;2023-08-06T13:13:37;24.20;48.70
22360;DHT22;71759;52.034;4.706;2023-08-06T13:16:03;24.20;47.20
22360;DHT22;71759;52.034;4.706;2023-08-06T13:18:28;23.70;48.30
22360;DHT22;71759;52.034;4.706;2023-08-06T13:20:54;23.10;51.60
22360;DHT22;71759;52.034;4.706;2023-08-06T13:23:20;22.40;56.40
22360;DHT22;71759;52.034;4.706;2023-08-06T13:25:46;21.70;64.50
22360;DHT22;71759;52.034;4.706;2023-08-06T13:28:12;21.10;69.30
22360;DHT22;71759;52.034;4.706;2023-08-06T13:30:39;20.60;76.10
22360;DHT22;71759;52.034;4.706;2023-08-06T13:33:08;19.80;80.40
22360;DHT22;71759;52.034;4.706;2023-08-06T13:35:34;19.40;86.40
22360;DHT22;71759;52.034;4.706;2023-08-06T13:37:59;18.90;91.50
22360;DHT22;71759;52.034;4.706;2023-08-06T13:40:28;18.50;94.80
22360;DHT22;71759;52.034;4.706;2023-08-06T13:42:53;18.20;97.30
22360;DHT22;71759;52.034;4.706;2023-08-06T13:45:19;18.00;98.70
22360;DHT22;71759;52.034;4.706;2023-08-06T13:47:45;17.70;99.80
22360;DHT22;71759;52.034;4.706;2023-08-06T13:50:10;17.60;99.90
22360;DHT22;71759;52.034;4.706;2023-08-06T13:52:36;17.40;99.90
22360;DHT22;71759;52.034;4.706;2023-08-06T13:55:01;17.30;99.90
22360;DHT22;71759;52.034;4.706;2023-08-06T13:57:29;17.30;99.90
22360;DHT22;71759;52.034;4.706;2023-08-06T13:59:55;17.30;99.90
22360;DHT22;71759;52.034;4.706;2023-08-06T14:02:20;17.40;99.90
22360;DHT22;71759;52.034;4.706;2023-08-06T14:04:46;17.40;99.90
22360;DHT22;71759;52.034;4.706;2023-08-06T14:07:11;17.50;99.90
22360;DHT22;71759;52.034;4.706;2023-08-06T14:09:37;17.60;99.90
22360;DHT22;71759;52.034;4.706;2023-08-06T14:12:02;17.60;99.90
22360;DHT22;71759;52.034;4.706;2023-08-06T14:14:28;17.50;99.90
22360;DHT22;71759;52.034;4.706;2023-08-06T14:16:54;17.40;99.90
22360;DHT22;71759;52.034;4.706;2023-08-06T14:19:20;17.20;99.90
22360;DHT22;71759;52.034;4.706;2023-08-06T14:21:46;17.00;99.90
22360;DHT22;71759;52.034;4.706;2023-08-06T14:24:11;16.90;99.90
22360;DHT22;71759;52.034;4.706;2023-08-06T14:26:37;16.90;99.90
22360;DHT22;71759;52.034;4.706;2023-08-06T14:29:03;16.90;99.90
22360;DHT22;71759;52.034;4.706;2023-08-06T14:31:28;16.80;99.90
22360;DHT22;71759;52.034;4.706;2023-08-06T14:33:54;16.80;99.90
22360;DHT22;71759;52.034;4.706;2023-08-06T14:36:19;16.80;99.90
22360;DHT22;71759;52.034;4.706;2023-08-06T14:38:45;16.70;99.90
22360;DHT22;71759;52.034;4.706;2023-08-06T14:41:11;16.80;99.90
22360;DHT22;71759;52.034;4.706;2023-08-06T14:43:36;16.80;99.90
22360;DHT22;71759;52.034;4.706;2023-08-06T14:46:02;16.80;99.90
22360;DHT22;71759;52.034;4.706;2023-08-06T14:48:28;16.80;99.90
22360;DHT22;71759;52.034;4.706;2023-08-06T14:50:54;16.80;99.90
22360;DHT22;71759;52.034;4.706;2023-08-06T14:53:20;16.80;99.90
22360;DHT22;71759;52.034;4.706;2023-08-06T14:55:45;16.70;99.90
22360;DHT22;71759;52.034;4.706;2023-08-06T14:58:11;16.60;99.90
22360;DHT22;71759;52.034;4.706;2023-08-06T15:00:36;16.40;99.90
22360;DHT22;71759;52.034;4.706;2023-08-06T15:03:02;16.30;99.90
22360;DHT22;71759;52.034;4.706;2023-08-06T15:05:27;16.20;99.90
22360;DHT22;71759;52.034;4.706;2023-08-06T15:07:53;16.00;99.90
22360;DHT22;71759;52.034;4.706;2023-08-06T15:10:19;16.10;99.90
22360;DHT22;71759;52.034;4.706;2023-08-06T15:12:44;16.10;99.90
22360;DHT22;71759;52.034;4.706;2023-08-06T15:15:10;15.90;99.90
22360;DHT22;71759;52.034;4.706;2023-08-06T15:17:36;15.80;99.90
22360;DHT22;71759;52.034;4.706;2023-08-06T15:20:02;15.70;99.90
22360;DHT22;71759;52.034;4.706;2023-08-06T15:22:28;15.50;99.90
22360;DHT22;71759;52.034;4.706;2023-08-06T15:24:57;15.40;99.90
22360;DHT22;71759;52.034;4.706;2023-08-06T15:27:23;15.40;99.90
22360;DHT22;71759;52.034;4.706;2023-08-06T15:29:49;15.40;99.90
22360;DHT22;71759;52.034;4.706;2023-08-06T15:32:14;15.40;99.90
22360;DHT22;71759;52.034;4.706;2023-08-06T15:34:40;15.30;99.90
22360;DHT22;71759;52.034;4.706;2023-08-06T15:37:06;15.30;99.90
22360;DHT22;71759;52.034;4.706;2023-08-06T15:39:32;15.20;99.90
22360;DHT22;71759;52.034;4.706;2023-08-06T15:41:58;15.30;99.90
22360;DHT22;71759;52.034;4.706;2023-08-06T15:44:25;15.30;99.90
22360;DHT22;71759;52.034;4.706;2023-08-06T15:46:50;15.30;99.90
22360;DHT22;71759;52.034;4.706;2023-08-06T15:49:16;15.20;99.90
22360;DHT22;71759;52.034;4.706;2023-08-06T15:51:41;15.30;99.90
22360;DHT22;71759;52.034;4.706;2023-08-06T15:54:07;15.40;99.90
22360;DHT22;71759;52.034;4.706;2023-08-06T15:56:33;15.50;99.90
22360;DHT22;71759;52.034;4.706;2023-08-06T15:59:25;15.70;99.90
22360;DHT22;71759;52.034;4.706;2023-08-06T16:01:51;15.80;99.90
22360;DHT22;71759;52.034;4.706;2023-08-06T16:04:17;15.90;99.90
22360;DHT22;71759;52.034;4.706;2023-08-06T16:06:42;16.00;99.90
22360;DHT22;71759;52.034;4.706;2023-08-06T16:09:08;16.10;99.90
22360;DHT22;71759;52.034;4.706;2023-08-06T16:11:34;16.10;99.90
22360;DHT22;71759;52.034;4.706;2023-08-06T16:13:59;16.20;99.90
